Time;durP1;ratioP1;P1;durP2;ratioP2;P2;SDS_P1;SDS_P2;PMS_P1;PMS_P2;Temp;Humidity;BMP_temperature;BMP_pressure;BME280_temperature;BME280_humidity;BME280_pressure;Samples;Min_cycle;Max_cycle;Signal;HPM_P1;HPM_P2
2021/04/05 00:02:04;;;;;;;26.27;18.95;;;;;;;-3.65;74.41;95928.72;3585943;39;20734;-55
2021/04/05 00:04:31;;;;;;;33.28;19.27;;;;;;;-3.67;74.25;95921.13;3584462;39;20089;-55
2021/04/05 00:07:04;;;;;;;35.45;22.27;;;;;;;-3.69;74.54;95920.47;3596972;39;20041;-55
2021/04/05 00:09:32;;;;;;;35.58;22.15;;;;;;;-3.68;74.56;95923.88;3583866;39;20086;-57
2021/04/05 00:11:59;;;;;;;29.20;20.27;;;;;;;-3.71;74.57;95917.28;3592538;39;20058;-56
2021/04/05 00:14:28;;;;;;;33.25;21.25;;;;;;;-3.74;74.79;95913.25;3586014;39;20062;-55
2021/04/05 00:16:55;;;;;;;34.10;21.75;;;;;;;-3.80;74.81;95908.75;3583920;40;20047;-55
2021/04/05 00:19:22;;;;;;;41.13;24.98;;;;;;;-3.78;74.94;95912.00;3574687;40;20044;-55
2021/04/05 00:21:49;;;;;;;37.50;24.23;;;;;;;-3.81;75.11;95908.91;3585643;39;20059;-54
2021/04/05 00:24:17;;;;;;;29.00;20.17;;;;;;;-3.84;75.43;95898.97;3567487;39;20052;-54
2021/04/05 00:26:44;;;;;;;36.42;22.63;;;;;;;-3.87;75.85;95902.66;3585248;39;20054;-54
2021/04/05 00:29:13;;;;;;;32.90;21.95;;;;;;;-3.92;75.48;95898.00;3586138;40;20047;-54
2021/04/05 00:31:40;;;;;;;46.40;23.98;;;;;;;-3.95;75.70;95900.09;3585605;39;20050;-60
2021/04/05 00:34:08;;;;;;;35.53;24.80;;;;;;;-4.02;75.76;95905.09;3581626;39;20044;-55
2021/04/05 00:36:35;;;;;;;32.58;19.20;;;;;;;-3.98;75.70;95903.00;3583805;39;20074;-56
2021/04/05 00:39:05;;;;;;;35.22;21.55;;;;;;;-3.97;75.56;95894.31;3584766;40;20053;-54
2021/04/05 00:41:32;;;;;;;29.95;20.73;;;;;;;-4.04;75.63;95889.00;3584775;40;21108;-55
2021/04/05 00:44:00;;;;;;;29.15;20.17;;;;;;;-4.04;75.87;95887.25;3583299;39;20413;-55
2021/04/05 00:46:27;;;;;;;26.77;17.85;;;;;;;-4.02;76.08;95885.31;3583994;40;20048;-54
2021/04/05 00:48:55;;;;;;;26.77;17.17;;;;;;;-3.99;76.04;95878.19;3584522;39;20086;-54
2021/04/05 00:51:26;;;;;;;26.30;18.42;;;;;;;-4.02;76.39;95885.31;3583646;39;20057;-54
2021/04/05 00:53:54;;;;;;;31.50;19.70;;;;;;;-4.04;76.79;95876.13;3584891;40;20078;-54
2021/04/05 00:56:24;;;;;;;24.30;18.25;;;;;;;-4.03;76.67;95873.41;3586094;39;20060;-54
2021/04/05 00:58:52;;;;;;;25.48;18.85;;;;;;;-4.08;76.42;95867.91;3585061;39;20063;-55
2021/04/05 01:01:25;;;;;;;30.10;18.35;;;;;;;-4.12;76.25;95863.25;3587660;40;20779;-55
2021/04/05 01:03:53;;;;;;;27.92;17.10;;;;;;;-4.12;76.55;95863.25;3584814;39;20052;-55
2021/04/05 01:06:29;;;;;;;29.08;18.88;;;;;;;-4.21;76.51;95844.44;3583261;39;20181;-55
2021/04/05 01:08:57;;;;;;;25.23;18.63;;;;;;;-4.12;76.30;95853.75;3583470;39;20042;-55
2021/04/05 01:11:28;;;;;;;32.53;20.33;;;;;;;-4.07;76.48;95856.66;3585662;39;20056;-55
2021/04/05 01:13:56;;;;;;;27.13;19.75;;;;;;;-4.08;76.28;95849.88;3586703;39;20056;-54
2021/04/05 01:16:30;;;;;;;29.23;18.60;;;;;;;-4.11;76.52;95845.06;3575446;39;20048;-54
2021/04/05 01:18:59;;;;;;;31.65;19.95;;;;;;;-4.09;76.56;95837.19;3583274;39;20059;-55
2021/04/05 01:21:27;;;;;;;33.72;20.23;;;;;;;-4.06;76.63;95837.66;3584942;39;20048;-55
2021/04/05 01:23:54;;;;;;;31.50;19.13;;;;;;;-4.08;76.40;95834.44;3586101;39;20053;-55
2021/04/05 01:26:22;;;;;;;29.52;19.60;;;;;;;-4.07;76.77;95832.66;3579843;40;20054;-54
2021/04/05 01:28:49;;;;;;;30.65;20.80;;;;;;;-4.12;76.47;95833.13;3589336;39;20062;-55
2021/04/05 01:31:16;;;;;;;33.47;21.23;;;;;;;-4.17;76.51;95825.13;3567301;40;20055;-55
2021/04/05 01:33:44;;;;;;;32.42;19.90;;;;;;;-4.19;76.21;95821.91;3583680;39;20056;-54
2021/04/05 01:36:17;;;;;;;26.40;21.20;;;;;;;-4.17;76.29;95819.97;3583684;40;20052;-54
2021/04/05 01:38:45;;;;;;;31.63;20.15;;;;;;;-4.16;75.77;95821.59;3596210;39;20048;-55
2021/04/05 01:41:18;;;;;;;33.17;21.60;;;;;;;-4.19;76.03;95807.28;3578962;40;20521;-54
2021/04/05 01:43:45;;;;;;;31.23;19.73;;;;;;;-4.22;76.04;95817.06;3583017;40;20056;-55
2021/04/05 01:46:15;;;;;;;31.60;19.95;;;;;;;-4.25;76.10;95804.53;3584428;39;20045;-55
2021/04/05 01:48:42;;;;;;;29.30;20.13;;;;;;;-4.24;75.93;95811.28;3584633;40;20045;-60
2021/04/05 01:51:16;;;;;;;30.67;19.70;;;;;;;-4.26;75.98;95805.50;3584072;39;20064;-54
2021/04/05 01:53:45;;;;;;;30.52;20.40;;;;;;;-4.27;75.72;95796.97;3583901;39;20410;-54
2021/04/05 01:56:15;;;;;;;29.55;20.05;;;;;;;-4.29;75.89;95798.09;3592360;39;20050;-54
2021/04/05 01:58:45;;;;;;;32.40;21.45;;;;;;;-4.29;76.45;95800.69;3584695;39;20045;-55
2021/04/05 02:01:16;;;;;;;26.48;18.88;;;;;;;-4.35;76.51;95799.56;3583230;39;20066;-54
2021/04/05 02:03:44;;;;;;;30.95;19.77;;;;;;;-4.44;76.70;95785.91;3584218;39;20040;-55
2021/04/05 02:06:26;;;;;;;27.27;19.65;;;;;;;-4.42;77.39;95796.84;3583734;39;20059;-54
2021/04/05 02:08:53;;;;;;;25.00;17.88;;;;;;;-4.42;77.26;95791.69;3592361;39;20053;-55
2021/04/05 02:11:28;;;;;;;27.35;20.13;;;;;;;-4.43;76.80;95789.31;3584657;39;20060;-55
2021/04/05 02:13:58;;;;;;;28.90;20.33;;;;;;;-4.50;76.74;95784.78;3584704;39;20044;-55
2021/04/05 02:16:27;;;;;;;27.27;18.20;;;;;;;-4.48;77.24;95784.63;3567233;40;20391;-54
2021/04/05 02:18:56;;;;;;;24.73;16.98;;;;;;;-4.44;77.23;95778.19;3591333;39;20055;-54
2021/04/05 02:21:25;;;;;;;26.63;18.73;;;;;;;-4.44;77.03;95785.91;3584797;39;20050;-55
2021/04/05 02:23:54;;;;;;;29.63;20.20;;;;;;;-4.43;76.99;95773.84;3584550;40;20060;-54
2021/04/05 02:26:24;;;;;;;29.00;18.27;;;;;;;-4.44;76.71;95778.19;3592692;39;20059;-54
2021/04/05 02:28:53;;;;;;;29.08;16.33;;;;;;;-4.39;76.36;95765.63;3584907;40;20059;-54
2021/04/05 02:31:23;;;;;;;25.30;16.85;;;;;;;-4.37;76.61;95763.66;3585756;39;20040;-55
2021/04/05 02:33:52;;;;;;;27.98;17.95;;;;;;;-4.37;76.63;95768.03;3585232;39;20044;-54
2021/04/05 02:36:40;;;;;;;26.13;16.15;;;;;;;-4.45;76.95;95750.81;3585904;40;20055;-54
2021/04/05 02:39:10;;;;;;;23.40;16.13;;;;;;;-4.36;76.54;95752.41;3584596;40;20385;-54
2021/04/05 02:41:41;;;;;;;25.88;16.85;;;;;;;-4.39;76.60;95759.66;3589684;40;20636;-54
2021/04/05 02:44:10;;;;;;;28.05;16.58;;;;;;;-4.40;76.66;95758.06;3585662;39;20058;-55
2021/04/05 02:46:40;;;;;;;28.50;17.75;;;;;;;-4.41;76.54;95754.69;3586808;39;20051;-54
2021/04/05 02:49:13;;;;;;;27.42;18.27;;;;;;;-4.39;76.37;95757.91;3585371;40;20057;-54
2021/04/05 02:51:42;;;;;;;27.65;17.13;;;;;;;-4.43;76.63;95746.31;3586401;39;20037;-54
2021/04/05 02:54:11;;;;;;;27.77;18.58;;;;;;;-4.46;76.57;95743.28;3585537;40;20540;-55
2021/04/05 02:56:43;;;;;;;26.08;17.83;;;;;;;-4.59;76.57;95743.78;3585991;40;20047;-54
2021/04/05 02:59:11;;;;;;;22.10;15.45;;;;;;;-4.61;76.90;95736.22;3584441;39;20071;-54
2021/04/05 03:01:40;;;;;;;25.25;16.55;;;;;;;-4.70;76.81;95740.59;3578501;40;20054;-55
2021/04/05 03:04:09;;;;;;;21.13;16.52;;;;;;;-4.87;77.70;95726.94;3585116;39;20044;-54
2021/04/05 03:06:36;;;;;;;19.17;14.07;;;;;;;-4.90;78.21;95726.47;3588672;39;20054;-54
2021/04/05 03:09:06;;;;;;;21.55;14.50;;;;;;;-4.90;78.39;95721.34;3586002;39;20055;-54
2021/04/05 03:11:35;;;;;;;25.92;15.20;;;;;;;-4.94;78.16;95713.94;3584759;39;20295;-55
2021/04/05 03:14:09;;;;;;;22.40;16.05;;;;;;;-5.01;78.38;95709.59;3589910;39;20421;-54
2021/04/05 03:16:39;;;;;;;22.63;16.63;;;;;;;-5.05;78.28;95714.28;3586362;40;20062;-54
2021/04/05 03:19:09;;;;;;;23.67;17.30;;;;;;;-4.99;78.86;95717.97;3585755;39;20051;-54
2021/04/05 03:21:40;;;;;;;28.33;19.08;;;;;;;-5.07;79.08;95716.19;3593200;39;20317;-54
2021/04/05 03:24:09;;;;;;;29.50;17.73;;;;;;;-5.08;79.21;95712.03;3585888;40;20040;-54
2021/04/05 03:26:37;;;;;;;28.23;18.25;;;;;;;-5.08;79.31;95709.44;3584366;39;20062;-54
2021/04/05 03:29:08;;;;;;;21.98;16.42;;;;;;;-5.10;79.23;95701.09;3584173;39;20052;-54
2021/04/05 03:31:39;;;;;;;23.05;15.68;;;;;;;-5.11;79.15;95696.94;3586903;39;20098;-55
2021/04/05 03:34:11;;;;;;;25.25;16.08;;;;;;;-4.99;79.04;95703.34;3597493;39;20295;-54
2021/04/05 03:36:45;;;;;;;22.27;16.17;;;;;;;-4.94;79.19;95700.28;3585814;40;20074;-54
2021/04/05 03:39:14;;;;;;;22.52;16.90;;;;;;;-4.93;78.85;95696.75;3589592;39;20056;-58
2021/04/05 03:42:01;;;;;;;27.98;15.73;;;;;;;-4.96;79.03;95687.56;3584603;40;20049;-53
2021/04/05 03:44:35;;;;;;;25.23;16.60;;;;;;;-4.92;79.10;95692.41;3589652;39;20048;-54
2021/04/05 03:47:15;;;;;;;22.45;15.95;;;;;;;-4.88;79.44;95693.69;3584680;39;20051;-54
2021/04/05 03:49:54;;;;;;;25.55;17.42;;;;;;;-4.96;79.24;95684.19;3584385;39;20040;-55
2021/04/05 03:52:37;;;;;;;26.20;16.20;;;;;;;-4.98;79.33;95689.50;3584952;39;20054;-54
2021/04/05 03:55:08;;;;;;;28.52;15.90;;;;;;;-5.01;79.73;95678.75;3583493;39;20701;-54
2021/04/05 03:57:41;;;;;;;22.92;15.50;;;;;;;-5.02;79.09;95677.94;3577068;40;20051;-55
2021/04/05 04:00:10;;;;;;;20.23;16.17;;;;;;;-4.98;79.52;95671.50;3583905;40;20044;-54
2021/04/05 04:02:45;;;;;;;27.77;17.95;;;;;;;-4.88;79.82;95673.09;3589045;39;20052;-54
2021/04/05 04:05:23;;;;;;;30.73;17.58;;;;;;;-4.88;79.71;95673.09;3588064;39;20070;-54
2021/04/05 04:08:18;;;;;;;25.70;17.05;;;;;;;-4.92;79.31;95666.66;3585045;39;20054;-54
2021/04/05 04:10:49;;;;;;;19.92;15.50;;;;;;;-4.88;79.19;95679.03;3588977;40;20051;-54
2021/04/05 04:13:18;;;;;;;21.98;15.00;;;;;;;-4.92;79.22;95671.81;3585762;39;20060;-55
2021/04/05 04:15:49;;;;;;;20.25;14.90;;;;;;;-4.92;79.45;95664.09;3584248;39;20048;-55
2021/04/05 04:18:18;;;;;;;25.65;17.25;;;;;;;-4.91;79.23;95652.84;3574485;40;20036;-55
2021/04/05 04:20:46;;;;;;;22.90;15.40;;;;;;;-4.89;79.06;95651.69;3585416;40;20044;-55
2021/04/05 04:23:14;;;;;;;24.17;16.58;;;;;;;-4.88;79.07;95650.72;3586104;39;20062;-54
2021/04/05 04:25:42;;;;;;;28.77;18.45;;;;;;;-4.83;79.52;95647.66;3588692;39;20400;-55
2021/04/05 04:28:15;;;;;;;25.67;18.00;;;;;;;-4.82;79.40;95646.69;3585794;39;20071;-55
2021/04/05 04:30:43;;;;;;;24.58;17.60;;;;;;;-4.76;79.64;95640.91;3584856;39;20052;-55
2021/04/05 04:33:11;;;;;;;28.83;19.67;;;;;;;-4.70;79.10;95644.56;3577612;40;20044;-55
2021/04/05 04:35:40;;;;;;;26.83;17.60;;;;;;;-4.69;79.17;95648.75;3583001;39;20054;-54
2021/04/05 04:38:07;;;;;;;29.23;16.40;;;;;;;-4.71;79.50;95638.59;3586508;39;20569;-54
2021/04/05 04:40:36;;;;;;;28.85;19.13;;;;;;;-4.60;78.95;95637.47;3585211;39;20048;-54
2021/04/05 04:43:05;;;;;;;27.83;17.35;;;;;;;-4.57;78.66;95644.03;3584934;39;20056;-54
2021/04/05 04:45:33;;;;;;;28.00;17.80;;;;;;;-4.56;78.24;95640.50;3585018;39;20040;-54
2021/04/05 04:48:01;;;;;;;30.35;19.08;;;;;;;-4.25;78.48;95632.00;3584072;39;20055;-54
2021/04/05 04:50:29;;;;;;;30.48;21.40;;;;;;;-3.66;76.39;95628.84;3583101;40;20054;-54
2021/04/05 04:52:57;;;;;;;26.85;18.40;;;;;;;-3.06;75.86;95607.53;3574852;39;20046;-54
2021/04/05 04:55:26;;;;;;;29.20;18.77;;;;;;;-2.54;73.24;95605.78;3586511;39;20487;-54
2021/04/05 04:57:58;;;;;;;28.40;18.65;;;;;;;-2.06;71.02;95605.31;3584448;39;20048;-55
2021/04/05 05:00:28;;;;;;;25.67;17.55;;;;;;;-1.62;69.79;95604.31;3582830;39;20058;-54
2021/04/05 05:02:57;;;;;;;30.75;19.23;;;;;;;-1.22;67.78;95597.84;3585145;40;20066;-54
2021/04/05 05:05:27;;;;;;;32.60;20.83;;;;;;;-1.00;67.04;95599.38;3584325;39;20048;-55
2021/04/05 05:07:55;;;;;;;37.95;22.73;;;;;;;-1.10;66.05;95588.56;3585123;39;20262;-54
2021/04/05 05:10:24;;;;;;;35.50;22.05;;;;;;;-0.84;65.78;95585.31;3575287;40;20062;-55
2021/04/05 05:12:52;;;;;;;36.38;24.50;;;;;;;-0.40;64.91;95582.53;3584946;39;20317;-54
2021/04/05 05:15:22;;;;;;;41.28;24.13;;;;;;;-0.21;63.12;95571.41;3597057;39;20062;-54
2021/04/05 05:17:49;;;;;;;32.53;23.85;;;;;;;-0.14;63.39;95568.81;3584514;40;20046;-54
2021/04/05 05:20:18;;;;;;;30.27;22.77;;;;;;;-0.41;63.65;95576.53;3584843;39;20136;-54
2021/04/05 05:22:52;;;;;;;35.15;24.75;;;;;;;-0.75;64.39;95575.59;3574926;40;20062;-55
2021/04/05 05:25:22;;;;;;;34.20;23.20;;;;;;;-1.10;66.14;95575.63;3584244;39;20136;-56
2021/04/05 05:27:59;;;;;;;29.33;22.58;;;;;;;-1.32;66.57;95564.53;3588657;39;20074;-55
2021/04/05 05:30:28;;;;;;;31.92;23.50;;;;;;;-1.40;67.63;95562.88;3582998;39;20048;-54
2021/04/05 05:32:56;;;;;;;32.03;25.10;;;;;;;-1.50;67.62;95557.25;3584470;39;20324;-54
2021/04/05 05:35:24;;;;;;;35.40;24.20;;;;;;;-1.52;68.24;95564.41;3584095;40;20066;-54
2021/04/05 05:37:51;;;;;;;33.15;24.15;;;;;;;-1.65;68.36;95547.78;3584222;39;20048;-55
2021/04/05 05:40:23;;;;;;;33.65;24.80;;;;;;;-1.64;68.67;95541.63;3583018;39;20048;-55
2021/04/05 05:43:09;;;;;;;39.47;26.77;;;;;;;-1.59;69.39;95528.94;3583423;40;20040;-54
2021/04/05 05:46:06;;;;;;;47.83;28.95;;;;;;;-1.56;69.49;95543.28;3583796;39;20424;-55
2021/04/05 05:49:11;;;;;;;39.53;27.52;;;;;;;-1.58;70.73;95546.06;3581303;39;20064;-54
2021/04/05 05:51:51;;;;;;;39.72;25.02;;;;;;;-1.56;69.79;95533.75;3583794;39;20051;-55
2021/04/05 05:54:27;;;;;;;38.53;25.52;;;;;;;-1.51;70.26;95533.19;3584780;40;20060;-54
2021/04/05 05:57:03;;;;;;;34.15;25.83;;;;;;;-1.49;69.74;95532.97;3588339;39;20112;-54
2021/04/05 05:59:48;;;;;;;40.15;27.95;;;;;;;-1.44;70.11;95525.47;3567657;40;20916;-54
2021/04/05 06:02:23;;;;;;;41.95;28.40;;;;;;;-1.43;70.99;95516.72;3582891;39;20056;-54
2021/04/05 06:05:04;;;;;;;38.92;27.20;;;;;;;-1.36;70.81;95509.78;3584161;39;20083;-55
2021/04/05 06:08:20;;;;;;;38.28;26.42;;;;;;;-1.26;70.56;95517.22;3585167;39;20048;-55
2021/04/05 06:11:21;;;;;;;29.98;22.25;;;;;;;-1.14;68.98;95504.53;3572501;40;20083;-54
2021/04/05 06:14:01;;;;;;;34.03;24.58;;;;;;;-1.07;69.88;95500.19;3586120;40;20060;-53
2021/04/05 06:16:52;;;;;;;28.83;21.92;;;;;;;-0.99;68.76;95500.00;3584858;39;20052;-54
2021/04/05 06:19:51;;;;;;;36.08;22.65;;;;;;;-0.94;69.78;95495.06;3585679;39;20078;-54
2021/04/05 06:22:30;;;;;;;34.35;21.92;;;;;;;-0.83;69.52;95488.53;3580479;39;20052;-54
2021/04/05 06:25:22;;;;;;;29.63;22.48;;;;;;;-0.71;69.53;95477.59;3583919;39;20053;-53
2021/04/05 06:28:04;;;;;;;28.20;21.05;;;;;;;-0.68;68.63;95479.78;3586555;40;20060;-54
2021/04/05 06:30:48;;;;;;;34.70;21.88;;;;;;;-0.69;69.25;95473.84;3585754;39;20577;-54
2021/04/05 06:33:32;;;;;;;32.47;22.13;;;;;;;-0.64;68.32;95468.84;3585821;40;20048;-54
2021/04/05 06:36:12;;;;;;;25.75;18.80;;;;;;;-0.53;68.86;95474.44;3581235;40;20058;-53
2021/04/05 06:38:49;;;;;;;32.58;20.75;;;;;;;-0.48;68.25;95470.28;3584207;39;20044;-54
2021/04/05 06:41:38;;;;;;;27.30;21.35;;;;;;;-0.43;68.55;95469.69;3592545;39;20524;-54
2021/04/05 06:44:27;;;;;;;27.15;19.50;;;;;;;-0.33;68.79;95475.28;3589191;39;20094;-55
2021/04/05 06:47:32;;;;;;;26.65;18.80;;;;;;;-0.16;67.99;95464.53;3586337;40;20044;-54
2021/04/05 06:50:24;;;;;;;27.63;20.75;;;;;;;-0.12;67.08;95465.72;3585943;39;20049;-54
2021/04/05 06:53:25;;;;;;;31.80;19.60;;;;;;;-0.06;66.73;95451.16;3597110;39;20040;-54
2021/04/05 06:55:57;;;;;;;26.55;18.50;;;;;;;0.07;67.42;95451.16;3590236;40;20064;-54
2021/04/05 06:58:39;;;;;;;28.65;22.55;;;;;;;0.18;66.97;95444.59;3586177;39;20054;-54
2021/04/05 07:01:45;;;;;;;30.73;21.45;;;;;;;0.35;66.15;95444.16;3584318;39;20355;-54
2021/04/05 07:04:51;;;;;;;30.10;21.48;;;;;;;0.46;66.25;95438.31;3576038;40;20048;-57
2021/04/05 07:07:31;;;;;;;24.33;17.13;;;;;;;0.55;66.12;95431.13;3575014;40;20054;-53
2021/04/05 07:10:27;;;;;;;26.17;18.55;;;;;;;0.65;64.96;95428.91;3575721;40;20060;-54
2021/04/05 07:13:03;;;;;;;;;;;;;;;0.74;64.30;95430.25;3598939;39;20430;-53
2021/04/05 07:15:46;;;;;;;25.65;18.92;;;;;;;0.91;64.22;95428.03;3589722;39;19947;-54
2021/04/05 07:18:38;;;;;;;25.20;19.30;;;;;;;1.01;63.92;95429.38;3584275;40;20309;-53
2021/04/05 07:21:27;;;;;;;23.05;16.70;;;;;;;1.15;62.71;95428.31;3586416;39;20625;-55
2021/04/05 07:24:19;;;;;;;26.90;17.73;;;;;;;1.32;63.07;95425.19;3589037;39;20313;-55
2021/04/05 07:27:01;;;;;;;24.90;19.75;;;;;;;1.48;62.56;95414.31;3576980;40;20041;-55
2021/04/05 07:29:58;;;;;;;26.10;18.75;;;;;;;1.58;61.96;95410.44;3578367;40;20056;-54
2021/04/05 07:32:50;;;;;;;20.17;17.05;;;;;;;1.75;62.01;95413.31;3586388;39;20316;-53
2021/04/05 07:35:37;;;;;;;22.98;16.02;;;;;;;1.95;60.96;95413.16;3585477;39;20053;-54
2021/04/05 07:38:15;;;;;;;19.08;15.20;;;;;;;2.09;59.84;95400.84;3587478;39;20057;-54
2021/04/05 07:40:54;;;;;;;22.52;16.83;;;;;;;2.20;59.27;95397.53;3575787;40;20537;-56
2021/04/05 07:44:00;;;;;;;24.15;17.25;;;;;;;2.35;59.80;95388.56;3589440;39;20048;-54
2021/04/05 07:46:49;;;;;;;25.27;17.20;;;;;;;2.43;59.46;95380.47;3585652;39;20309;-54
2021/04/05 07:49:29;;;;;;;23.60;18.30;;;;;;;2.63;59.69;95377.66;3586596;40;20377;-56
2021/04/05 07:51:59;;;;;;;23.30;17.08;;;;;;;2.76;58.23;95364.47;3577389;39;20048;-55
2021/04/05 07:54:29;;;;;;;19.50;16.25;;;;;;;2.79;58.09;95363.22;3585178;39;20048;-55
2021/04/05 07:57:39;;;;;;;20.17;15.55;;;;;;;2.87;57.68;95354.31;3585842;39;20049;-55
2021/04/05 08:00:13;;;;;;;22.92;15.60;;;;;;;3.00;57.25;95356.75;3579076;40;20055;-55
2021/04/05 08:02:56;;;;;;;16.98;13.75;;;;;;;3.14;56.90;95343.53;3575518;40;20072;-55
2021/04/05 08:06:01;;;;;;;17.00;15.13;;;;;;;3.29;56.67;95348.34;3590807;39;20316;-55
2021/04/05 08:08:45;;;;;;;17.73;13.88;;;;;;;3.44;56.33;95334.88;3586163;39;20287;-55
2021/04/05 08:11:43;;;;;;;19.45;13.77;;;;;;;3.54;55.89;95324.66;3598015;39;20325;-55
2021/04/05 08:15:05;;;;;;;16.25;12.27;;;;;;;3.69;55.45;95322.41;3581793;40;20287;-54
2021/04/05 08:17:48;;;;;;;14.77;11.57;;;;;;;3.75;54.79;95323.34;3556323;40;20533;-54
2021/04/05 08:20:36;;;;;;;14.88;12.13;;;;;;;3.88;54.42;95308.47;3585502;39;20064;-54
2021/04/05 08:23:51;;;;;;;12.63;10.65;;;;;;;3.94;52.96;95308.34;3586422;39;20414;-56
2021/04/05 08:27:01;;;;;;;16.38;12.50;;;;;;;3.97;54.23;95305.28;3573753;40;20044;-55
2021/04/05 08:29:35;;;;;;;16.73;11.73;;;;;;;4.20;53.69;95298.44;3582004;39;20054;-54
2021/04/05 08:32:42;;;;;;;14.40;12.13;;;;;;;4.36;52.92;95288.31;3585247;39;20055;-54
2021/04/05 08:35:20;;;;;;;20.50;14.00;;;;;;;4.56;54.34;95280.06;3565559;40;20143;-54
2021/04/05 08:38:20;;;;;;;16.55;11.57;;;;;;;4.68;51.52;95275.56;3586489;39;20044;-54
2021/04/05 08:41:27;;;;;;;14.93;11.32;;;;;;;4.96;52.29;95266.13;3585308;39;20088;-54
2021/04/05 08:44:17;;;;;;;14.65;11.85;;;;;;;5.08;50.43;95250.41;3585613;40;20045;-54
2021/04/05 08:46:48;;;;;;;14.52;11.00;;;;;;;5.30;51.10;95253.06;3575239;40;20419;-56
2021/04/05 08:49:19;;;;;;;13.20;11.40;;;;;;;5.53;50.74;95243.50;3584002;39;20402;-55
2021/04/05 08:51:54;;;;;;;13.65;9.80;;;;;;;5.79;51.10;95238.59;3583154;39;20491;-54
2021/04/05 08:54:26;;;;;;;14.57;8.30;;;;;;;6.11;48.79;95236.13;3583991;40;20075;-54
2021/04/05 08:57:00;;;;;;;11.07;7.05;;;;;;;6.37;46.53;95223.34;3588589;39;20056;-55
2021/04/05 08:59:37;;;;;;;8.82;6.90;;;;;;;6.53;45.35;95218.28;3585200;39;20045;-55
2021/04/05 09:02:30;;;;;;;8.13;6.88;;;;;;;6.70;44.72;95211.09;3584943;40;20059;-54
2021/04/05 09:04:57;;;;;;;7.20;6.18;;;;;;;6.94;44.75;95205.56;3584838;39;20320;-55
2021/04/05 09:07:34;;;;;;;10.63;6.65;;;;;;;7.25;44.90;95200.53;3580737;39;20048;-54
2021/04/05 09:10:09;;;;;;;9.23;5.35;;;;;;;7.57;44.06;95186.53;3592250;39;20048;-56
2021/04/05 09:12:40;;;;;;;9.00;6.22;;;;;;;7.87;43.06;95179.88;3586616;39;20052;-56
2021/04/05 09:15:26;;;;;;;7.55;6.32;;;;;;;8.05;42.91;95157.63;3585843;39;20040;-56
2021/04/05 09:18:05;;;;;;;;;;;;;;;8.36;41.57;95162.97;3597667;39;20054;-55
2021/04/05 09:20:53;;;;;;;11.48;6.05;;;;;;;8.66;41.08;95153.56;3584517;39;19938;-55
2021/04/05 09:23:42;;;;;;;8.15;5.47;;;;;;;8.77;40.07;95149.88;3584866;39;20056;-54
2021/04/05 09:26:48;;;;;;;8.75;4.53;;;;;;;9.02;40.51;95142.25;3583431;39;20048;-55
2021/04/05 09:29:41;;;;;;;7.55;5.10;;;;;;;9.17;39.12;95138.81;3589069;39;20052;-55
2021/04/05 09:32:36;;;;;;;8.43;5.35;;;;;;;9.27;38.39;95125.63;3582017;39;20070;-56
2021/04/05 09:35:28;;;;;;;7.43;5.05;;;;;;;9.40;38.39;95124.31;3591472;39;20329;-56
2021/04/05 09:38:14;;;;;;;10.25;4.72;;;;;;;9.48;39.13;95113.22;3588654;39;20345;-56
2021/04/05 09:40:52;;;;;;;6.20;4.68;;;;;;;9.69;39.68;95105.25;3584607;39;20055;-57
2021/04/05 09:43:22;;;;;;;8.05;4.68;;;;;;;9.94;39.13;95091.19;3583724;40;20071;-55
2021/04/05 09:45:55;;;;;;;11.93;5.80;;;;;;;10.03;37.15;95096.66;3588375;39;20050;-56
2021/04/05 09:48:54;;;;;;;9.00;5.03;;;;;;;10.07;37.89;95095.06;3588358;39;20057;-56
2021/04/05 09:51:42;;;;;;;5.07;4.00;;;;;;;10.20;37.22;95061.25;3587279;39;20040;-56
2021/04/05 09:54:33;;;;;;;7.95;4.90;;;;;;;10.31;37.10;95066.19;3588249;39;20066;-55
2021/04/05 09:57:04;;;;;;;6.18;3.97;;;;;;;10.28;37.53;95066.72;3583552;39;20052;-55
2021/04/05 09:59:40;;;;;;;8.23;4.55;;;;;;;10.36;37.15;95069.81;3584029;39;20058;-54
2021/04/05 10:02:14;;;;;;;6.97;4.10;;;;;;;10.43;36.68;95055.31;3588471;39;20320;-56
2021/04/05 10:04:46;;;;;;;6.65;4.32;;;;;;;10.52;36.86;95067.91;3595311;39;20309;-56
2021/04/05 10:07:16;;;;;;;6.45;3.90;;;;;;;10.48;36.37;95062.38;3583486;40;20037;-55
2021/04/05 10:09:47;;;;;;;13.75;4.22;;;;;;;10.42;37.07;95060.88;3583754;39;20345;-55
2021/04/05 10:12:16;;;;;;;6.03;4.25;;;;;;;10.54;36.87;95042.03;3585746;40;20047;-54
2021/04/05 10:15:01;;;;;;;6.38;4.45;;;;;;;10.60;35.75;95054.13;3584533;39;20056;-55
2021/04/05 10:17:30;;;;;;;5.75;3.67;;;;;;;10.64;36.17;95051.72;3587362;39;20056;-56
2021/04/05 10:20:04;;;;;;;6.90;4.93;;;;;;;10.65;35.20;95035.59;3588791;40;20048;-56
2021/04/05 10:23:02;;;;;;;4.18;3.75;;;;;;;10.69;35.05;95033.22;3588602;40;20056;-56
2021/04/05 10:25:31;;;;;;;5.18;4.22;;;;;;;10.77;35.45;95033.38;3585069;39;20317;-56
2021/04/05 10:28:02;;;;;;;7.68;4.40;;;;;;;10.84;34.86;95032.28;3585315;39;20100;-56
2021/04/05 10:30:39;;;;;;;5.03;4.30;;;;;;;10.90;35.34;95025.88;3583867;40;20049;-56
2021/04/05 10:33:16;;;;;;;6.22;4.35;;;;;;;11.02;34.39;95013.09;3588028;39;20413;-56
2021/04/05 10:35:54;;;;;;;6.82;3.47;;;;;;;11.06;34.66;95008.84;3579294;40;20877;-57
2021/04/05 10:38:23;;;;;;;7.22;4.47;;;;;;;11.11;34.79;94999.31;3583316;39;20048;-56
2021/04/05 10:40:52;;;;;;;6.32;3.90;;;;;;;11.23;34.03;94999.69;3574290;40;20078;-56
2021/04/05 10:43:19;;;;;;;10.50;4.20;;;;;;;11.25;33.19;94999.41;3584172;39;20048;-56
2021/04/05 10:45:54;;;;;;;5.45;3.97;;;;;;;11.22;33.46;94990.97;3588003;40;20491;-56
2021/04/05 10:48:36;;;;;;;6.13;4.10;;;;;;;11.27;33.13;94969.00;3584277;40;20059;-56
2021/04/05 10:51:09;;;;;;;4.60;4.00;;;;;;;11.36;33.50;94971.78;3583574;40;20043;-56
2021/04/05 10:53:40;;;;;;;6.05;4.32;;;;;;;11.48;33.27;94974.03;3574637;39;20429;-56
2021/04/05 10:56:10;;;;;;;6.35;3.70;;;;;;;11.54;34.28;94971.03;3583992;40;20048;-56
2021/04/05 10:59:05;;;;;;;7.07;4.90;;;;;;;11.65;33.85;94971.69;3586316;40;20431;-56
2021/04/05 11:01:43;;;;;;;5.90;4.32;;;;;;;11.64;33.36;94943.69;3585505;40;20046;-56
2021/04/05 11:04:12;;;;;;;5.07;3.80;;;;;;;11.61;32.97;94944.28;3589600;39;20056;-56
2021/04/05 11:06:41;;;;;;;5.50;3.80;;;;;;;11.62;33.06;94945.06;3585289;40;20063;-55
2021/04/05 11:09:09;;;;;;;5.07;4.53;;;;;;;11.67;32.51;94937.84;3588916;39;20053;-54
2021/04/05 11:11:40;;;;;;;8.00;4.20;;;;;;;11.65;31.48;94929.41;3590300;39;20048;-54
2021/04/05 11:14:14;;;;;;;7.03;4.22;;;;;;;11.79;32.00;94933.97;3579994;40;20045;-57
2021/04/05 11:17:03;;;;;;;5.00;3.58;;;;;;;-146.28;100.00;62448.88;3584483;39;20049;-56
2021/04/05 11:19:44;;;;;;;8.80;4.32;;;;;;;12.08;32.17;94925.88;3585417;39;20180;-56
2021/04/05 11:22:17;;;;;;;7.05;4.32;;;;;;;12.10;30.88;94922.97;3597412;39;20044;-56
2021/04/05 11:24:52;;;;;;;9.32;5.00;;;;;;;12.07;100.00;94907.69;3585770;40;20059;-56
2021/04/05 11:27:25;;;;;;;9.35;5.10;;;;;;;-146.28;100.00;62448.88;3575374;40;20416;-57
2021/04/05 11:29:57;;;;;;;6.90;4.60;;;;;;;12.34;32.17;94908.81;3585531;40;20056;-55
2021/04/05 11:32:27;;;;;;;7.50;4.65;;;;;;;12.36;31.78;94909.31;3581383;39;20457;-57
2021/04/05 11:34:59;;;;;;;12.73;5.30;;;;;;;-146.28;100.00;62448.88;3596462;39;20398;-55
2021/04/05 11:37:30;;;;;;;7.57;4.25;;;;;;;-146.28;100.00;62448.88;3586502;39;20269;-55
2021/04/05 11:40:06;;;;;;;5.65;3.65;;;;;;;-146.28;100.00;62448.88;3589315;40;20394;-58
2021/04/05 11:42:36;;;;;;;5.30;4.28;;;;;;;-146.28;100.00;62448.88;3598705;39;20058;-55
2021/04/05 11:45:28;;;;;;;5.85;4.75;;;;;;;12.38;31.99;94870.13;3588026;39;20048;-55
2021/04/05 11:47:56;;;;;;;6.75;4.28;;;;;;;12.41;32.47;94869.53;3598605;39;20051;-55
2021/04/05 11:50:27;;;;;;;6.90;4.40;;;;;;;12.40;31.77;94847.63;3586095;39;20052;-55
2021/04/05 11:53:07;;;;;;;8.15;4.88;;;;;;;12.52;31.88;94856.91;3583775;39;20698;-56
2021/04/05 11:55:40;;;;;;;9.27;5.40;;;;;;;12.55;33.22;94843.88;3583552;39;20055;-57
2021/04/05 11:58:19;;;;;;;7.30;5.00;;;;;;;12.55;32.33;94843.88;3583686;39;20074;-54
2021/04/05 12:00:54;;;;;;;7.60;5.22;;;;;;;12.58;32.47;94856.53;3585840;39;20044;-55
2021/04/05 12:03:43;;;;;;;7.65;3.65;;;;;;;12.37;30.90;94831.56;3585319;39;20056;-55
2021/04/05 12:06:25;;;;;;;5.22;4.07;;;;;;;-146.28;100.00;62448.88;3584024;39;20054;-57